sensor_id;sensor_type;location;lat;lon;timestamp;temperature;humidity
23769;DHT22;12064;50.890;5.424;2023-05-07T00:01:38;21.70;85.20
23769;DHT22;12064;50.890;5.424;2023-05-07T00:10:29;21.60;85.30
23769;DHT22;12064;50.890;5.424;2023-05-07T00:19:20;21.60;85.40
23769;DHT22;12064;50.890;5.424;2023-05-07T00:28:10;21.60;85.40
23769;DHT22;12064;50.890;5.424;2023-05-07T00:37:01;21.60;85.40
23769;DHT22;12064;50.890;5.424;2023-05-07T00:45:55;21.60;85.60
23769;DHT22;12064;50.890;5.424;2023-05-07T00:54:45;21.50;85.50
23769;DHT22;12064;50.890;5.424;2023-05-07T01:03:36;21.50;85.70
23769;DHT22;12064;50.890;5.424;2023-05-07T01:12:30;21.50;85.70
23769;DHT22;12064;50.890;5.424;2023-05-07T01:21:25;21.50;85.90
23769;DHT22;12064;50.890;5.424;2023-05-07T01:30:18;21.50;86.10
23769;DHT22;12064;50.890;5.424;2023-05-07T01:39:13;21.40;86.10
23769;DHT22;12064;50.890;5.424;2023-05-07T01:48:05;21.40;86.20
23769;DHT22;12064;50.890;5.424;2023-05-07T01:56:56;21.40;87.00
23769;DHT22;12064;50.890;5.424;2023-05-07T02:05:50;21.40;86.30
23769;DHT22;12064;50.890;5.424;2023-05-07T02:14:41;21.40;86.50
23769;DHT22;12064;50.890;5.424;2023-05-07T02:23:31;21.30;86.50
23769;DHT22;12064;50.890;5.424;2023-05-07T02:32:22;21.30;86.70
23769;DHT22;12064;50.890;5.424;2023-05-07T02:41:13;21.30;86.70
23769;DHT22;12064;50.890;5.424;2023-05-07T02:50:04;21.30;86.70
23769;DHT22;12064;50.890;5.424;2023-05-07T02:58:55;21.30;86.70
23769;DHT22;12064;50.890;5.424;2023-05-07T03:07:46;21.30;86.80
23769;DHT22;12064;50.890;5.424;2023-05-07T03:16:38;21.30;86.90
23769;DHT22;12064;50.890;5.424;2023-05-07T03:25:29;21.30;86.90
23769;DHT22;12064;50.890;5.424;2023-05-07T03:34:22;21.20;87.00
23769;DHT22;12064;50.890;5.424;2023-05-07T03:43:13;21.20;86.90
23769;DHT22;12064;50.890;5.424;2023-05-07T03:52:03;21.20;87.00
23769;DHT22;12064;50.890;5.424;2023-05-07T04:00:54;21.20;87.20
23769;DHT22;12064;50.890;5.424;2023-05-07T04:09:45;21.20;87.10
23769;DHT22;12064;50.890;5.424;2023-05-07T04:18:35;21.20;87.30
23769;DHT22;12064;50.890;5.424;2023-05-07T04:27:26;21.10;87.40
23769;DHT22;12064;50.890;5.424;2023-05-07T04:36:18;21.10;87.40
23769;DHT22;12064;50.890;5.424;2023-05-07T04:45:09;21.10;87.50
23769;DHT22;12064;50.890;5.424;2023-05-07T04:54:00;21.10;87.60
23769;DHT22;12064;50.890;5.424;2023-05-07T05:02:51;21.10;87.70
23769;DHT22;12064;50.890;5.424;2023-05-07T05:11:42;21.10;88.10
23769;DHT22;12064;50.890;5.424;2023-05-07T05:20:35;21.10;88.20
23769;DHT22;12064;50.890;5.424;2023-05-07T05:29:26;21.00;88.20
23769;DHT22;12064;50.890;5.424;2023-05-07T05:38:17;21.10;88.70
23769;DHT22;12064;50.890;5.424;2023-05-07T05:47:07;20.80;89.10
23769;DHT22;12064;50.890;5.424;2023-05-07T05:55:58;21.00;88.80
23769;DHT22;12064;50.890;5.424;2023-05-07T06:04:52;21.10;89.30
23769;DHT22;12064;50.890;5.424;2023-05-07T06:13:42;21.00;89.20
23769;DHT22;12064;50.890;5.424;2023-05-07T06:22:36;21.00;89.30
23769;DHT22;12064;50.890;5.424;2023-05-07T06:31:30;21.10;89.30
23769;DHT22;12064;50.890;5.424;2023-05-07T06:40:23;20.90;90.30
23769;DHT22;12064;50.890;5.424;2023-05-07T06:49:14;20.70;90.80
23769;DHT22;12064;50.890;5.424;2023-05-07T06:58:04;20.70;90.60
23769;DHT22;12064;50.890;5.424;2023-05-07T07:06:56;20.60;90.80
23769;DHT22;12064;50.890;5.424;2023-05-07T07:15:47;20.60;90.80
23769;DHT22;12064;50.890;5.424;2023-05-07T07:24:37;20.60;91.10
23769;DHT22;12064;50.890;5.424;2023-05-07T07:33:28;20.50;91.30
23769;DHT22;12064;50.890;5.424;2023-05-07T07:42:19;20.50;91.40
23769;DHT22;12064;50.890;5.424;2023-05-07T07:51:10;20.50;91.80
23769;DHT22;12064;50.890;5.424;2023-05-07T08:00:03;20.50;91.70
23769;DHT22;12064;50.890;5.424;2023-05-07T08:08:54;20.50;91.50
23769;DHT22;12064;50.890;5.424;2023-05-07T08:17:45;20.60;91.20
23769;DHT22;12064;50.890;5.424;2023-05-07T08:26:36;20.70;91.10
23769;DHT22;12064;50.890;5.424;2023-05-07T08:35:29;20.70;90.40
23769;DHT22;12064;50.890;5.424;2023-05-07T08:44:22;20.80;90.50
23769;DHT22;12064;50.890;5.424;2023-05-07T08:53:14;20.90;90.30
23769;DHT22;12064;50.890;5.424;2023-05-07T09:02:07;21.00;91.10
23769;DHT22;12064;50.890;5.424;2023-05-07T09:11:02;21.10;90.50
23769;DHT22;12064;50.890;5.424;2023-05-07T09:19:52;21.20;90.30
23769;DHT22;12064;50.890;5.424;2023-05-07T09:28:44;21.20;90.20
23769;DHT22;12064;50.890;5.424;2023-05-07T09:37:38;21.30;90.10
23769;DHT22;12064;50.890;5.424;2023-05-07T09:46:32;21.40;90.00
23769;DHT22;12064;50.890;5.424;2023-05-07T09:55:24;21.40;90.00
23769;DHT22;12064;50.890;5.424;2023-05-07T10:04:16;21.40;90.00
23769;DHT22;12064;50.890;5.424;2023-05-07T10:13:07;21.40;89.90
23769;DHT22;12064;50.890;5.424;2023-05-07T10:22:05;21.40;89.90
23769;DHT22;12064;50.890;5.424;2023-05-07T10:40:06;21.40;89.70
23769;DHT22;12064;50.890;5.424;2023-05-07T10:57:56;21.40;89.60
23769;DHT22;12064;50.890;5.424;2023-05-07T11:07:31;21.40;89.50
23769;DHT22;12064;50.890;5.424;2023-05-07T11:16:25;21.40;89.40
23769;DHT22;12064;50.890;5.424;2023-05-07T11:25:18;21.40;89.30
23769;DHT22;12064;50.890;5.424;2023-05-07T11:34:12;21.50;89.30
23769;DHT22;12064;50.890;5.424;2023-05-07T11:43:11;21.50;89.20
23769;DHT22;12064;50.890;5.424;2023-05-07T11:52:01;21.50;89.10
23769;DHT22;12064;50.890;5.424;2023-05-07T12:00:53;21.50;89.00
23769;DHT22;12064;50.890;5.424;2023-05-07T12:09:45;21.50;88.90
23769;DHT22;12064;50.890;5.424;2023-05-07T12:18:36;21.50;88.90
23769;DHT22;12064;50.890;5.424;2023-05-07T12:27:27;21.50;88.80
23769;DHT22;12064;50.890;5.424;2023-05-07T12:36:18;21.50;88.80
23769;DHT22;12064;50.890;5.424;2023-05-07T12:45:13;21.60;89.60
23769;DHT22;12064;50.890;5.424;2023-05-07T12:54:08;21.60;88.60
23769;DHT22;12064;50.890;5.424;2023-05-07T13:03:02;21.60;88.50
23769;DHT22;12064;50.890;5.424;2023-05-07T13:11:55;21.60;88.50
23769;DHT22;12064;50.890;5.424;2023-05-07T13:20:46;21.60;88.40
23769;DHT22;12064;50.890;5.424;2023-05-07T13:29:36;21.70;88.40
23769;DHT22;12064;50.890;5.424;2023-05-07T13:38:27;21.60;88.20
23769;DHT22;12064;50.890;5.424;2023-05-07T13:47:18;21.70;88.20
23769;DHT22;12064;50.890;5.424;2023-05-07T13:56:08;21.70;88.10
23769;DHT22;12064;50.890;5.424;2023-05-07T14:05:00;21.70;88.10
23769;DHT22;12064;50.890;5.424;2023-05-07T14:13:51;21.70;88.10
23769;DHT22;12064;50.890;5.424;2023-05-07T14:22:41;21.70;88.00
23769;DHT22;12064;50.890;5.424;2023-05-07T14:31:32;21.70;88.00
23769;DHT22;12064;50.890;5.424;2023-05-07T14:40:23;21.70;87.90
23769;DHT22;12064;50.890;5.424;2023-05-07T14:49:14;21.70;87.90
23769;DHT22;12064;50.890;5.424;2023-05-07T14:58:07;21.70;87.90
23769;DHT22;12064;50.890;5.424;2023-05-07T15:06:58;21.70;87.90
23769;DHT22;12064;50.890;5.424;2023-05-07T15:15:48;21.70;87.80
23769;DHT22;12064;50.890;5.424;2023-05-07T15:24:40;21.70;87.70
23769;DHT22;12064;50.890;5.424;2023-05-07T15:33:33;21.70;87.70
23769;DHT22;12064;50.890;5.424;2023-05-07T15:42:23;21.70;87.70
23769;DHT22;12064;50.890;5.424;2023-05-07T15:51:15;21.70;87.70
23769;DHT22;12064;50.890;5.424;2023-05-07T16:00:06;21.80;87.70
23769;DHT22;12064;50.890;5.424;2023-05-07T16:08:58;21.80;87.70
23769;DHT22;12064;50.890;5.424;2023-05-07T16:17:49;21.80;87.80
23769;DHT22;12064;50.890;5.424;2023-05-07T16:26:41;21.80;87.70
23769;DHT22;12064;50.890;5.424;2023-05-07T16:35:34;21.80;87.70
23769;DHT22;12064;50.890;5.424;2023-05-07T16:44:25;21.70;87.70
23769;DHT22;12064;50.890;5.424;2023-05-07T16:53:16;21.80;87.90
23769;DHT22;12064;50.890;5.424;2023-05-07T17:02:06;21.70;87.40
23769;DHT22;12064;50.890;5.424;2023-05-07T17:10:57;21.70;87.60
23769;DHT22;12064;50.890;5.424;2023-05-07T17:19:47;21.80;87.70
23769;DHT22;12064;50.890;5.424;2023-05-07T17:28:38;21.80;87.70
23769;DHT22;12064;50.890;5.424;2023-05-07T17:37:30;21.70;87.80
23769;DHT22;12064;50.890;5.424;2023-05-07T17:46:21;21.70;88.50
23769;DHT22;12064;50.890;5.424;2023-05-07T17:55:12;21.70;89.00
23769;DHT22;12064;50.890;5.424;2023-05-07T18:04:02;21.70;88.90
23769;DHT22;12064;50.890;5.424;2023-05-07T18:12:53;21.60;89.00
23769;DHT22;12064;50.890;5.424;2023-05-07T18:21:44;21.60;88.90
23769;DHT22;12064;50.890;5.424;2023-05-07T18:30:34;21.60;89.00
23769;DHT22;12064;50.890;5.424;2023-05-07T18:39:28;21.70;89.30
23769;DHT22;12064;50.890;5.424;2023-05-07T18:48:18;21.70;89.30
23769;DHT22;12064;50.890;5.424;2023-05-07T18:57:09;21.70;89.30
23769;DHT22;12064;50.890;5.424;2023-05-07T19:06:03;21.60;89.40
23769;DHT22;12064;50.890;5.424;2023-05-07T19:14:55;21.60;89.40
23769;DHT22;12064;50.890;5.424;2023-05-07T19:23:45;21.60;89.20
23769;DHT22;12064;50.890;5.424;2023-05-07T19:32:36;21.60;89.30
23769;DHT22;12064;50.890;5.424;2023-05-07T19:41:27;21.60;89.30
23769;DHT22;12064;50.890;5.424;2023-05-07T19:50:18;21.60;89.30
23769;DHT22;12064;50.890;5.424;2023-05-07T19:59:09;21.60;89.20
23769;DHT22;12064;50.890;5.424;2023-05-07T20:08:00;21.60;89.30
23769;DHT22;12064;50.890;5.424;2023-05-07T20:16:51;21.60;89.30
23769;DHT22;12064;50.890;5.424;2023-05-07T20:25:42;21.60;89.30
23769;DHT22;12064;50.890;5.424;2023-05-07T20:34:33;21.50;89.30
23769;DHT22;12064;50.890;5.424;2023-05-07T20:43:23;21.50;89.20
23769;DHT22;12064;50.890;5.424;2023-05-07T20:52:14;21.60;89.20
23769;DHT22;12064;50.890;5.424;2023-05-07T21:01:04;21.50;89.30
23769;DHT22;12064;50.890;5.424;2023-05-07T21:09:55;21.50;89.40
23769;DHT22;12064;50.890;5.424;2023-05-07T21:18:47;21.50;89.40
23769;DHT22;12064;50.890;5.424;2023-05-07T21:27:39;21.50;89.50
23769;DHT22;12064;50.890;5.424;2023-05-07T21:36:30;21.50;89.60
23769;DHT22;12064;50.890;5.424;2023-05-07T21:45:21;21.50;89.40
23769;DHT22;12064;50.890;5.424;2023-05-07T21:54:11;21.50;89.60
23769;DHT22;12064;50.890;5.424;2023-05-07T22:03:03;21.40;89.50
23769;DHT22;12064;50.890;5.424;2023-05-07T22:11:54;21.40;89.60
23769;DHT22;12064;50.890;5.424;2023-05-07T22:20:45;21.40;89.60
23769;DHT22;12064;50.890;5.424;2023-05-07T22:29:36;21.40;89.60
23769;DHT22;12064;50.890;5.424;2023-05-07T22:38:26;21.40;89.70
23769;DHT22;12064;50.890;5.424;2023-05-07T22:47:18;21.40;89.70
23769;DHT22;12064;50.890;5.424;2023-05-07T22:56:09;21.40;89.80
23769;DHT22;12064;50.890;5.424;2023-05-07T23:04:59;21.40;89.80
23769;DHT22;12064;50.890;5.424;2023-05-07T23:13:53;21.40;89.80
23769;DHT22;12064;50.890;5.424;2023-05-07T23:22:46;21.40;89.90
23769;DHT22;12064;50.890;5.424;2023-05-07T23:31:37;21.40;89.90
23769;DHT22;12064;50.890;5.424;2023-05-07T23:40:28;21.30;89.80
23769;DHT22;12064;50.890;5.424;2023-05-07T23:49:18;21.30;90.30
23769;DHT22;12064;50.890;5.424;2023-05-07T23:58:09;21.30;89.90
